Time;durP1;ratioP1;P1;durP2;ratioP2;P2;SDS_P1;SDS_P2;PMS_P1;PMS_P2;Temp;Humidity;BMP_temperature;BMP_pressure;BME280_temperature;BME280_humidity;BME280_pressure;Samples;Min_cycle;Max_cycle;Signal;HPM_P1;HPM_P2
2023/06/13 00:02:22;;;;;;;8.55;5.40;;;20.30;85.10;;;;;;4990317;28;20058;-72
2023/06/13 00:04:51;;;;;;;8.82;5.75;;;20.30;85.90;;;;;;4984382;28;20072;-73
2023/06/13 00:07:17;;;;;;;8.25;5.40;;;20.30;85.20;;;;;;4985793;28;20111;-73
2023/06/13 00:09:43;;;;;;;6.47;5.65;;;20.20;85.20;;;;;;4986557;28;20049;-73
2023/06/13 00:12:09;;;;;;;7.95;5.93;;;20.20;85.30;;;;;;5084943;28;20569;-73
2023/06/13 00:14:35;;;;;;;6.03;5.20;;;20.20;85.10;;;;;;4987085;28;20053;-73
2023/06/13 00:17:02;;;;;;;7.05;5.47;;;20.20;85.00;;;;;;4989661;28;20053;-72
2023/06/13 00:19:28;;;;;;;5.93;5.32;;;20.30;84.70;;;;;;5053497;28;20046;-72
2023/06/13 00:21:56;;;;;;;7.78;5.55;;;20.20;84.60;;;;;;4988091;28;20042;-73
2023/06/13 00:24:22;;;;;;;6.07;5.32;;;20.10;85.00;;;;;;4986960;28;20054;-73
2023/06/13 00:26:48;;;;;;;5.97;5.38;;;20.00;85.10;;;;;;4985248;28;20042;-73
2023/06/13 00:29:13;;;;;;;7.70;5.63;;;19.90;85.20;;;;;;4986160;28;20385;-73
2023/06/13 00:31:40;;;;;;;5.85;5.15;;;;;;;;;;5055340;28;20635;-73
2023/06/13 00:34:05;;;;;;;7.35;5.00;;;19.80;85.20;;;;;;5055063;28;20050;-73
2023/06/13 00:36:34;;;;;;;7.50;4.88;;;19.80;85.30;;;;;;5053379;28;20039;-73
2023/06/13 00:39:00;;;;;;;7.45;5.80;;;19.80;85.60;;;;;;5054220;28;20091;-72
2023/06/13 00:41:26;;;;;;;6.85;5.25;;;19.80;85.10;;;;;;5082210;28;20049;-72
2023/06/13 00:43:52;;;;;;;6.60;5.10;;;19.80;85.20;;;;;;4990050;28;20053;-72
2023/06/13 00:46:25;;;;;;;7.93;5.55;;;19.60;85.50;;;;;;5037961;28;20525;-73
2023/06/13 00:48:51;;;;;;;5.90;5.25;;;19.70;85.20;;;;;;4982275;28;20092;-72
2023/06/13 00:51:20;;;;;;;7.28;5.85;;;19.50;85.60;;;;;;4983913;28;20046;-73
2023/06/13 00:53:47;;;;;;;7.90;5.63;;;19.50;85.70;;;;;;4986023;28;20603;-73
2023/06/13 00:56:13;;;;;;;6.68;5.60;;;19.60;85.30;;;;;;4991909;28;20511;-73
2023/06/13 00:58:38;;;;;;;6.88;6.00;;;19.50;85.50;;;;;;4984820;28;20046;-73
2023/06/13 01:01:04;;;;;;;6.63;5.57;;;19.40;85.80;;;;;;5067403;28;20497;-75
2023/06/13 01:03:34;;;;;;;8.13;5.90;;;19.30;85.70;;;;;;4987034;28;20034;-72
2023/06/13 01:06:00;;;;;;;9.73;5.68;;;19.30;85.80;;;;;;5047583;28;20084;-72
2023/06/13 01:08:27;;;;;;;8.13;5.93;;;19.30;85.80;;;;;;4988343;28;20732;-72
2023/06/13 01:11:02;;;;;;;8.77;6.47;;;19.20;85.90;;;;;;5051756;28;20505;-73
2023/06/13 01:13:49;;;;;;;7.60;6.10;;;19.20;86.00;;;;;;5054435;28;20076;-73
2023/06/13 01:16:24;;;;;;;8.73;6.50;;;19.20;86.20;;;;;;4982901;28;20440;-73
2023/06/13 01:18:51;;;;;;;9.18;6.43;;;19.10;86.20;;;;;;5041702;28;20058;-73
2023/06/13 01:21:18;;;;;;;7.35;6.03;;;19.10;86.40;;;;;;4986091;28;20053;-73
2023/06/13 01:23:57;;;;;;;7.00;6.18;;;19.00;86.60;;;;;;5053721;28;20111;-73
2023/06/13 01:26:41;;;;;;;6.82;6.13;;;19.00;86.60;;;;;;4986885;28;20043;-73
2023/06/13 01:29:09;;;;;;;7.28;6.47;;;18.90;86.80;;;;;;4986251;28;20046;-72
2023/06/13 01:31:36;;;;;;;8.00;6.35;;;19.00;86.70;;;;;;4983421;28;20482;-73
2023/06/13 01:34:02;;;;;;;8.75;6.47;;;18.90;86.70;;;;;;5051131;28;20061;-72
2023/06/13 01:36:29;;;;;;;10.68;6.78;;;18.80;86.80;;;;;;4983302;28;20046;-73
2023/06/13 01:38:55;;;;;;;8.65;6.80;;;18.70;87.70;;;;;;4987408;28;20053;-73
2023/06/13 01:41:20;;;;;;;8.57;6.40;;;18.60;87.50;;;;;;5052181;28;20046;-72
2023/06/13 01:43:46;;;;;;;9.57;6.60;;;18.60;87.70;;;;;;4986399;28;20176;-73
2023/06/13 01:46:41;;;;;;;8.60;6.25;;;18.60;87.90;;;;;;5034429;28;20099;-73
2023/06/13 01:49:10;;;;;;;9.07;6.70;;;;;;;;;;4985556;28;20042;-73
2023/06/13 01:52:00;;;;;;;8.20;6.22;;;18.50;87.90;;;;;;4984969;28;20143;-73
2023/06/13 01:54:26;;;;;;;7.82;5.95;;;18.40;88.00;;;;;;4985908;28;20578;-72
2023/06/13 01:56:59;;;;;;;8.57;6.07;;;18.40;88.90;;;;;;4976884;28;20497;-72
2023/06/13 01:59:27;;;;;;;12.03;6.57;;;18.20;88.80;;;;;;5051166;28;20054;-73
2023/06/13 02:01:53;;;;;;;8.00;6.40;;;18.30;89.70;;;;;;4978724;28;20317;-73
2023/06/13 02:04:19;;;;;;;11.68;6.10;;;18.30;89.20;;;;;;4993154;28;20124;-73
2023/06/13 02:06:45;;;;;;;8.65;6.72;;;;;;;;;;4983720;28;20046;-73
2023/06/13 02:09:11;;;;;;;8.35;6.82;;;18.10;89.90;;;;;;4988640;28;20054;-72
2023/06/13 02:11:37;;;;;;;8.95;6.50;;;;;;;;;;4984506;28;20533;-73
2023/06/13 02:14:03;;;;;;;7.03;6.32;;;18.10;89.80;;;;;;4983506;28;20500;-73
2023/06/13 02:16:30;;;;;;;7.68;6.05;;;;;;;;;;5087774;28;20050;-73
2023/06/13 02:18:59;;;;;;;8.65;6.80;;;;;;;;;;4990003;28;20046;-73
2023/06/13 02:21:26;;;;;;;8.60;6.20;;;;;;;;;;4987734;28;20061;-73
2023/06/13 02:23:52;;;;;;;7.90;6.20;;;;;;;;;;4989507;28;20072;-73
2023/06/13 02:26:19;;;;;;;6.25;5.57;;;;;;;;;;5053713;28;20501;-72
2023/06/13 02:28:45;;;;;;;8.43;6.05;;;;;;;;;;5050688;28;20178;-73
2023/06/13 02:31:11;;;;;;;7.18;6.25;;;;;;;;;;4987751;28;20447;-73
2023/06/13 02:33:38;;;;;;;9.93;6.13;;;;;;;;;;5054821;28;20086;-72
2023/06/13 02:36:05;;;;;;;8.32;6.50;;;;;;;;;;5053719;28;20072;-73
2023/06/13 02:38:31;;;;;;;7.15;6.00;;;;;;;;;;4989752;28;20062;-73
2023/06/13 02:40:57;;;;;;;8.35;6.30;;;;;;;;;;5056014;28;20038;-73
2023/06/13 02:43:23;;;;;;;8.80;5.75;;;;;;;;;;4989948;28;20039;-73
2023/06/13 02:45:50;;;;;;;7.05;5.93;;;;;;;;;;5057915;28;20088;-73
2023/06/13 02:48:16;;;;;;;10.65;6.18;;;;;;;;;;4987640;28;20057;-73
2023/06/13 02:50:42;;;;;;;6.18;5.57;;;;;;;;;;4989898;28;20396;-73
2023/06/13 02:53:08;;;;;;;7.88;5.65;;;;;;;;;;4989071;28;20133;-73
2023/06/13 02:55:34;;;;;;;7.93;5.90;;;;;;;;;;5055303;28;20035;-73
2023/06/13 02:58:01;;;;;;;8.20;5.70;;;;;;;;;;4993205;28;20046;-73
2023/06/13 03:00:27;;;;;;;7.03;5.70;;;;;;;;;;4985501;28;20063;-73
2023/06/13 03:02:57;;;;;;;7.25;5.75;;;;;;;;;;4992530;28;20085;-73
2023/06/13 03:05:25;;;;;;;6.32;5.50;;;;;;;;;;4988892;28;20057;-72
2023/06/13 03:07:51;;;;;;;6.53;5.78;;;;;;;;;;5057309;28;20065;-73
2023/06/13 03:10:18;;;;;;;7.47;5.75;;;;;;;;;;4991261;28;20042;-73
2023/06/13 03:12:44;;;;;;;7.93;6.25;;;;;;;;;;4988668;28;20042;-73
2023/06/13 03:15:11;;;;;;;7.22;5.85;;;;;;;;;;4986595;28;20130;-73
2023/06/13 03:17:37;;;;;;;7.65;6.15;;;;;;;;;;4987173;28;20093;-73
2023/06/13 03:20:06;;;;;;;7.05;6.03;;;;;;;;;;4983755;28;20070;-73
2023/06/13 03:22:33;;;;;;;7.82;5.70;;;;;;;;;;4988162;28;20046;-73
2023/06/13 03:25:04;;;;;;;9.02;6.10;;;;;;;;;;5063640;28;20042;-73
2023/06/13 03:27:32;;;;;;;9.10;5.65;;;;;;;;;;4985160;28;20054;-73
2023/06/13 03:29:58;;;;;;;6.90;5.90;;;;;;;;;;5055408;28;20119;-73
2023/06/13 03:32:24;;;;;;;8.10;5.95;;;;;;;;;;4987359;28;20158;-72
2023/06/13 03:34:52;;;;;;;7.63;5.07;;;;;;;;;;4999163;28;20380;-73
2023/06/13 03:37:19;;;;;;;8.82;5.70;;;;;;;;;;4984306;28;20066;-73
2023/06/13 03:39:45;;;;;;;8.05;6.10;;;;;;;;;;4987381;28;20065;-73
2023/06/13 03:42:11;;;;;;;7.85;5.70;;;;;;;;;;4992891;28;20472;-73
2023/06/13 03:44:37;;;;;;;7.00;5.63;;;;;;;;;;5032331;28;20689;-73
2023/06/13 03:47:03;;;;;;;9.85;6.20;;;;;;;;;;4989307;28;20030;-73
2023/06/13 03:49:29;;;;;;;6.97;5.55;;;;;;;;;;4987409;28;20116;-72
2023/06/13 03:51:55;;;;;;;8.65;5.78;;;;;;;;;;5050259;28;20544;-73
2023/06/13 03:54:21;;;;;;;9.50;5.93;;;;;;;;;;4986382;28;20049;-72
2023/06/13 03:56:48;;;;;;;8.48;6.00;;;;;;;;;;4986166;28;20379;-73
2023/06/13 03:59:14;;;;;;;9.05;6.40;;;;;;;;;;4985569;28;20039;-73
2023/06/13 04:01:43;;;;;;;8.10;5.70;;;;;;;;;;5054164;28;20087;-73
2023/06/13 04:04:09;;;;;;;8.50;5.57;;;;;;;;;;4988929;28;20038;-73
2023/06/13 04:06:37;;;;;;;9.07;5.90;;;;;;;;;;4986667;28;20133;-74
2023/06/13 04:09:04;;;;;;;8.20;6.07;;;;;;;;;;4984876;28;20050;-73
2023/06/13 04:11:31;;;;;;;6.50;5.43;;;;;;;;;;4986104;28;20126;-73
2023/06/13 04:13:57;;;;;;;7.00;5.68;;;;;;;;;;5052381;28;20046;-73
2023/06/13 04:16:23;;;;;;;7.15;5.57;;;;;;;;;;5035621;28;20074;-73
2023/06/13 04:18:49;;;;;;;7.10;6.25;;;;;;;;;;4987662;28;20080;-73
2023/06/13 04:21:15;;;;;;;7.18;5.90;;;;;;;;;;5054745;28;20247;-73
2023/06/13 04:23:41;;;;;;;12.00;6.05;;;;;;;;;;4982615;28;20038;-73
2023/06/13 04:26:07;;;;;;;8.85;5.82;;;;;;;;;;4984772;28;20482;-73
2023/06/13 04:28:35;;;;;;;9.90;6.35;;;;;;;;;;4986609;28;20149;-73
2023/06/13 04:31:03;;;;;;;9.32;6.13;;;;;;;;;;4987906;28;20521;-73
2023/06/13 04:33:29;;;;;;;8.93;5.82;;;;;;;;;;4985754;28;20434;-73
2023/06/13 04:36:03;;;;;;;9.40;6.10;;;;;;;;;;4984910;28;20075;-73
2023/06/13 04:38:29;;;;;;;6.53;5.82;;;;;;;;;;4990177;28;21406;-73
2023/06/13 04:40:57;;;;;;;7.35;6.28;;;;;;;;;;4987521;28;20482;-74
2023/06/13 04:43:23;;;;;;;10.55;5.70;;;;;;;;;;4985500;28;20409;-74
2023/06/13 04:45:49;;;;;;;8.25;5.75;;;;;;;;;;5013605;28;20095;-73
2023/06/13 04:48:15;;;;;;;10.00;6.20;;;;;;;;;;4983955;28;20129;-73
2023/06/13 04:50:41;;;;;;;10.52;6.68;;;;;;;;;;4986595;28;20482;-73
2023/06/13 04:53:16;;;;;;;7.60;6.00;;;;;;;;;;4983102;28;20035;-72
2023/06/13 04:55:42;;;;;;;10.68;6.03;;;;;;;;;;4989976;28;20052;-73
2023/06/13 04:58:08;;;;;;;9.07;6.20;;;;;;;;;;4985549;28;20522;-72
2023/06/13 05:00:34;;;;;;;6.75;6.10;;;;;;;;;;4977271;28;20034;-73
2023/06/13 05:03:01;;;;;;;8.98;6.25;;;;;;;;;;5054043;28;20123;-72
2023/06/13 05:05:27;;;;;;;7.65;6.05;;;;;;;;;;4984918;28;20532;-73
2023/06/13 05:07:55;;;;;;;8.85;6.22;;;;;;;;;;5052954;28;20050;-72
2023/06/13 05:10:25;;;;;;;10.90;5.82;;;;;;;;;;5036094;28;20053;-72
2023/06/13 05:12:51;;;;;;;6.75;6.00;;;;;;;;;;4977577;28;20042;-73
2023/06/13 05:15:18;;;;;;;7.10;5.90;;;;;;;;;;5046923;28;20107;-73
2023/06/13 05:17:54;;;;;;;8.93;6.32;;;;;;;;;;5052521;28;20520;-73
2023/06/13 05:20:26;;;;;;;11.95;6.10;;;;;;;;;;4987121;28;20161;-73
2023/06/13 05:22:53;;;;;;;7.55;5.90;;;;;;;;;;4982628;28;20398;-73
2023/06/13 05:25:19;;;;;;;6.78;5.55;;;;;;;;;;4986359;28;20068;-73
2023/06/13 05:27:45;;;;;;;8.15;5.65;;;18.00;90.00;;;;;;5054054;28;20046;-73
2023/06/13 05:30:11;;;;;;;10.82;5.70;;;18.50;92.50;;;;;;4982783;28;20525;-73
2023/06/13 05:32:37;;;;;;;7.18;5.60;;;18.40;92.00;;;;;;4982198;28;20038;-73
2023/06/13 05:35:03;;;;;;;8.38;6.10;;;18.40;92.30;;;;;;5052578;28;20034;-73
2023/06/13 05:37:29;;;;;;;9.93;6.03;;;18.40;92.00;;;;;;5050345;28;20061;-73
2023/06/13 05:39:56;;;;;;;8.63;5.50;;;18.50;92.40;;;;;;5053072;28;20050;-73
2023/06/13 05:42:22;;;;;;;6.63;5.13;;;18.50;91.80;;;;;;4979891;28;20566;-72
2023/06/13 05:44:47;;;;;;;7.47;5.82;;;18.60;91.60;;;;;;4985870;28;20034;-73
2023/06/13 05:47:13;;;;;;;7.40;5.97;;;18.70;91.50;;;;;;4987410;28;20087;-73
2023/06/13 05:49:38;;;;;;;6.88;5.60;;;18.70;91.30;;;;;;5050919;28;20443;-72
2023/06/13 05:52:05;;;;;;;8.60;6.05;;;18.70;91.60;;;;;;4990537;28;20180;-72
2023/06/13 05:54:31;;;;;;;8.60;5.70;;;18.80;91.40;;;;;;5056011;28;20099;-73
2023/06/13 05:56:57;;;;;;;7.07;5.82;;;18.80;91.40;;;;;;4990241;28;20034;-72
2023/06/13 05:59:23;;;;;;;9.05;5.65;;;18.80;91.60;;;;;;4988723;28;20042;-72
2023/06/13 06:01:49;;;;;;;6.07;5.43;;;18.80;91.40;;;;;;4989589;28;20038;-71
2023/06/13 06:04:14;;;;;;;6.50;5.30;;;18.90;91.20;;;;;;4989446;28;20046;-72
2023/06/13 06:06:40;;;;;;;9.93;5.78;;;19.00;91.20;;;;;;4982099;28;20092;-72
2023/06/13 06:09:06;;;;;;;6.70;5.07;;;19.00;90.80;;;;;;4987728;28;20035;-72
2023/06/13 06:11:32;;;;;;;7.25;5.70;;;19.10;90.50;;;;;;4985829;28;20042;-72
2023/06/13 06:13:57;;;;;;;9.50;5.68;;;19.20;89.90;;;;;;5057529;28;20432;-72
2023/06/13 06:16:23;;;;;;;7.35;5.47;;;19.20;90.10;;;;;;5087351;28;20082;-72
2023/06/13 06:18:50;;;;;;;8.35;5.68;;;19.30;90.10;;;;;;4990366;28;20097;-72
2023/06/13 06:21:15;;;;;;;8.65;5.22;;;19.40;89.80;;;;;;4988313;28;20051;-72
2023/06/13 06:23:42;;;;;;;9.25;5.43;;;19.50;89.40;;;;;;4982385;28;20053;-72
2023/06/13 06:26:09;;;;;;;7.53;5.47;;;19.30;90.10;;;;;;4987111;28;20054;-72
2023/06/13 06:28:35;;;;;;;6.57;5.10;;;19.50;89.20;;;;;;5074054;28;20054;-73
2023/06/13 06:31:00;;;;;;;8.02;5.22;;;19.40;89.50;;;;;;4987810;28;20049;-72
2023/06/13 06:33:29;;;;;;;18.33;6.78;;;19.50;89.30;;;;;;4983736;28;20129;-72
2023/06/13 06:35:55;;;;;;;8.63;5.70;;;19.50;90.00;;;;;;5054922;28;20038;-73
2023/06/13 06:38:20;;;;;;;11.95;6.63;;;19.60;90.30;;;;;;4985080;28;20065;-72
2023/06/13 06:40:46;;;;;;;9.68;5.90;;;19.60;90.80;;;;;;4981946;28;20047;-72
2023/06/13 06:43:12;;;;;;;10.85;6.05;;;19.60;91.40;;;;;;4991363;28;20068;-73
2023/06/13 06:45:37;;;;;;;9.18;6.00;;;19.60;91.10;;;;;;4989885;28;20050;-73
2023/06/13 06:48:03;;;;;;;6.50;5.30;;;19.70;89.90;;;;;;4993422;28;20389;-72
2023/06/13 06:50:29;;;;;;;8.23;5.70;;;19.90;88.80;;;;;;5054014;28;20038;-72
2023/06/13 06:52:55;;;;;;;12.05;6.15;;;19.80;90.00;;;;;;4995672;28;20038;-72
2023/06/13 06:55:21;;;;;;;9.65;5.95;;;19.90;89.90;;;;;;5071709;28;20473;-72
2023/06/13 06:57:46;;;;;;;9.15;5.53;;;20.00;89.40;;;;;;4991813;28;20087;-73
2023/06/13 07:00:14;;;;;;;9.80;5.68;;;20.10;89.70;;;;;;5056642;28;20069;-73
2023/06/13 07:02:41;;;;;;;10.23;5.93;;;20.10;89.10;;;;;;4991506;28;20048;-72
2023/06/13 07:05:08;;;;;;;10.98;5.70;;;20.10;90.10;;;;;;4985405;28;20111;-72
2023/06/13 07:07:35;;;;;;;6.95;5.00;;;20.10;90.40;;;;;;4983380;28;20153;-73
2023/06/13 07:10:01;;;;;;;11.25;5.72;;;20.10;90.30;;;;;;4984585;28;20083;-72
2023/06/13 07:12:26;;;;;;;7.28;5.53;;;20.20;90.40;;;;;;4987875;28;20502;-72
2023/06/13 07:14:52;;;;;;;7.40;5.60;;;20.20;90.60;;;;;;4988309;28;20045;-73
2023/06/13 07:17:17;;;;;;;12.07;5.65;;;20.10;90.50;;;;;;5056925;28;20058;-72
2023/06/13 07:19:43;;;;;;;8.23;5.97;;;20.40;88.00;;;;;;5057615;28;20046;-73
2023/06/13 07:22:09;;;;;;;11.75;6.22;;;20.50;87.20;;;;;;4988560;28;20474;-72
2023/06/13 07:24:34;;;;;;;9.68;5.28;;;20.60;86.90;;;;;;4983136;28;20039;-73
2023/06/13 07:27:00;;;;;;;12.32;5.88;;;20.60;86.70;;;;;;4990573;28;20113;-72
2023/06/13 07:29:26;;;;;;;11.43;5.15;;;20.60;87.70;;;;;;4987132;28;20068;-72
2023/06/13 07:31:51;;;;;;;9.95;4.85;;;20.80;85.80;;;;;;4987835;28;20592;-72
2023/06/13 07:34:17;;;;;;;6.72;5.35;;;20.90;85.90;;;;;;4991497;28;20035;-73
2023/06/13 07:36:43;;;;;;;6.90;4.65;;;20.80;86.10;;;;;;4989215;28;20093;-73
2023/06/13 07:39:13;;;;;;;7.40;4.55;;;21.00;84.90;;;;;;4988217;28;20046;-73
2023/06/13 07:41:39;;;;;;;7.43;4.93;;;21.10;85.00;;;;;;5054096;28;20055;-73
2023/06/13 07:44:05;;;;;;;9.55;4.85;;;21.20;84.60;;;;;;4983657;28;20043;-72
2023/06/13 07:46:31;;;;;;;5.28;4.72;;;21.30;84.60;;;;;;5085286;28;20050;-73
2023/06/13 07:48:57;;;;;;;6.20;4.60;;;21.30;84.70;;;;;;4984124;28;20490;-72
2023/06/13 07:51:24;;;;;;;10.05;4.43;;;21.40;84.20;;;;;;4977002;28;20050;-72
2023/06/13 07:53:50;;;;;;;4.90;4.38;;;21.40;85.20;;;;;;4982134;28;20042;-72
2023/06/13 07:56:16;;;;;;;8.43;5.03;;;;;;;;;;4981072;28;20049;-71
2023/06/13 07:58:42;;;;;;;6.10;4.28;;;21.40;83.60;;;;;;4978956;28;20422;-71
2023/06/13 08:01:08;;;;;;;6.72;4.63;;;21.60;85.20;;;;;;4983326;28;20229;-71
2023/06/13 08:03:34;;;;;;;5.88;4.70;;;21.60;83.60;;;;;;5053888;28;20047;-72
2023/06/13 08:06:00;;;;;;;5.68;4.28;;;;;;;;;;5065810;28;20153;-71
2023/06/13 08:08:26;;;;;;;5.63;4.13;;;;;;;;;;4977805;28;20046;-71
2023/06/13 08:10:52;;;;;;;8.52;4.28;;;21.90;82.50;;;;;;4982276;28;20473;-71
2023/06/13 08:13:17;;;;;;;9.45;4.18;;;22.00;80.20;;;;;;4989204;28;20130;-71
2023/06/13 08:15:43;;;;;;;8.35;4.32;;;22.20;79.30;;;;;;4980468;28;20121;-71
2023/06/13 08:18:09;;;;;;;6.25;4.18;;;22.30;78.70;;;;;;4986915;28;20039;-70
2023/06/13 08:20:35;;;;;;;7.70;4.15;;;22.30;78.60;;;;;;4987357;28;20491;-71
2023/06/13 08:23:01;;;;;;;7.63;4.25;;;22.30;78.10;;;;;;4987440;28;20047;-70
2023/06/13 08:25:27;;;;;;;11.50;4.68;;;22.40;78.40;;;;;;4988369;28;20100;-70
2023/06/13 08:27:53;;;;;;;8.27;4.13;;;22.40;79.50;;;;;;4987076;28;20035;-71
2023/06/13 08:30:19;;;;;;;9.30;4.25;;;22.50;78.60;;;;;;4985210;28;20081;-71
2023/06/13 08:32:46;;;;;;;8.57;4.28;;;22.50;78.80;;;;;;4983926;28;20077;-71
2023/06/13 08:35:12;;;;;;;5.35;3.80;;;22.60;78.10;;;;;;4986972;28;20100;-70
2023/06/13 08:37:54;;;;;;;12.88;4.95;;;22.50;78.30;;;;;;5053401;28;20085;-71
2023/06/13 08:40:20;;;;;;;8.52;4.20;;;22.70;78.80;;;;;;4982192;28;20058;-71
2023/06/13 08:42:46;;;;;;;7.22;4.15;;;;;;;;;;4989527;28;20053;-71
2023/06/13 08:45:12;;;;;;;5.50;4.32;;;;;;;;;;4986041;28;20124;-71
2023/06/13 08:47:39;;;;;;;7.63;3.75;;;;;;;;;;4986490;28;20067;-71
2023/06/13 08:50:10;;;;;;;5.00;4.15;;;22.80;78.20;;;;;;4986602;28;20077;-71
2023/06/13 08:52:43;;;;;;;12.00;4.40;;;23.20;74.80;;;;;;4985794;28;20046;-71
2023/06/13 08:55:14;;;;;;;6.55;4.25;;;23.30;74.50;;;;;;4983467;28;20041;-71
2023/06/13 08:57:41;;;;;;;9.13;3.97;;;23.30;75.10;;;;;;4983523;28;20042;-71
2023/06/13 09:00:11;;;;;;;9.35;5.07;;;23.40;73.80;;;;;;4985904;28;20045;-72
2023/06/13 09:02:39;;;;;;;10.77;5.28;;;23.40;72.40;;;;;;5054726;28;20034;-71
2023/06/13 09:05:06;;;;;;;5.85;3.88;;;23.60;73.30;;;;;;4986266;28;20088;-71
2023/06/13 09:07:33;;;;;;;6.50;4.03;;;23.70;73.60;;;;;;4984856;28;20386;-71
2023/06/13 09:09:59;;;;;;;6.63;4.18;;;23.70;73.70;;;;;;4987251;28;20042;-71
2023/06/13 09:12:25;;;;;;;6.38;4.20;;;23.80;73.80;;;;;;4984798;28;20057;-71
2023/06/13 09:14:52;;;;;;;6.22;4.47;;;23.80;73.70;;;;;;4987483;28;20034;-71
2023/06/13 09:17:18;;;;;;;10.68;4.70;;;23.90;72.30;;;;;;4984573;28;20137;-72
2023/06/13 09:19:43;;;;;;;6.72;4.22;;;23.80;73.00;;;;;;4983409;28;20458;-71
2023/06/13 09:22:09;;;;;;;8.75;4.30;;;23.80;72.90;;;;;;4986646;28;20053;-71
2023/06/13 09:24:36;;;;;;;7.55;4.60;;;23.80;73.60;;;;;;4985477;28;20043;-71
2023/06/13 09:27:02;;;;;;;8.43;4.40;;;23.90;73.60;;;;;;4983561;28;20046;-71
2023/06/13 09:29:33;;;;;;;10.35;4.70;;;23.90;73.60;;;;;;5050115;28;20062;-71
2023/06/13 09:31:59;;;;;;;8.27;4.60;;;23.90;74.20;;;;;;4982410;28;20482;-71
2023/06/13 09:34:29;;;;;;;9.63;4.10;;;24.00;73.40;;;;;;4981785;28;20172;-71
2023/06/13 09:36:56;;;;;;;7.30;4.00;;;24.00;73.20;;;;;;4982747;28;20047;-71
2023/06/13 09:39:28;;;;;;;6.97;4.20;;;24.20;72.80;;;;;;4986145;28;20073;-71
2023/06/13 09:41:59;;;;;;;5.10;4.50;;;24.20;73.40;;;;;;4986011;28;20053;-71
2023/06/13 09:44:25;;;;;;;8.95;4.32;;;24.20;72.80;;;;;;4983259;28;20050;-71
2023/06/13 09:46:55;;;;;;;8.10;4.40;;;24.30;72.80;;;;;;4984709;28;20057;-71
2023/06/13 09:49:21;;;;;;;5.10;4.15;;;24.30;73.80;;;;;;4986477;28;20046;-71
2023/06/13 09:51:47;;;;;;;7.72;4.28;;;24.30;74.50;;;;;;5085230;28;20547;-71
2023/06/13 09:54:14;;;;;;;10.52;4.30;;;24.40;74.00;;;;;;5051030;28;20054;-71
2023/06/13 09:56:42;;;;;;;8.18;4.47;;;24.40;73.00;;;;;;4973223;28;20445;-71
2023/06/13 09:59:08;;;;;;;5.72;3.95;;;24.60;72.70;;;;;;4981099;28;20042;-71
2023/06/13 10:01:34;;;;;;;5.13;4.43;;;24.60;73.10;;;;;;4982393;28;20034;-72
2023/06/13 10:04:05;;;;;;;6.85;4.63;;;24.70;73.90;;;;;;4985130;28;20111;-71
2023/06/13 10:06:31;;;;;;;15.00;5.03;;;24.70;74.80;;;;;;4990853;28;20069;-71
2023/06/13 10:08:57;;;;;;;8.55;5.15;;;24.80;75.10;;;;;;5087041;28;20073;-71
2023/06/13 10:11:28;;;;;;;12.50;5.07;;;24.80;74.10;;;;;;5052760;28;20038;-71
2023/06/13 10:13:56;;;;;;;7.22;4.22;;;24.90;74.50;;;;;;5053413;28;20052;-71
2023/06/13 10:16:24;;;;;;;7.13;4.63;;;24.90;74.60;;;;;;4985184;28;20057;-70
2023/06/13 10:18:53;;;;;;;11.05;4.80;;;25.00;73.50;;;;;;5042992;28;20058;-70
2023/06/13 10:21:21;;;;;;;9.27;4.50;;;25.10;72.90;;;;;;4984278;28;20532;-71
2023/06/13 10:23:49;;;;;;;9.18;4.90;;;;;;;;;;4983236;28;20466;-71
2023/06/13 10:26:27;;;;;;;9.27;4.30;;;;;;;;;;4979441;28;20584;-71
2023/06/13 10:28:56;;;;;;;6.78;4.43;;;;;;;;;;4981406;28;20047;-71
2023/06/13 10:31:29;;;;;;;8.00;4.20;;;25.10;72.80;;;;;;4987697;28;20500;-71
2023/06/13 10:34:14;;;;;;;6.63;4.10;;;25.20;73.00;;;;;;4984193;28;20043;-71
2023/06/13 10:37:12;;;;;;;6.55;4.15;;;25.20;71.80;;;;;;4987652;28;20060;-71
2023/06/13 10:39:43;;;;;;;4.38;3.70;;;25.20;71.40;;;;;;4988070;28;20050;-71
2023/06/13 10:42:40;;;;;;;6.00;4.45;;;25.30;71.90;;;;;;4988415;28;20125;-71
2023/06/13 10:45:11;;;;;;;5.78;4.18;;;25.30;72.60;;;;;;4985356;28;20078;-70
2023/06/13 10:47:39;;;;;;;8.48;4.32;;;25.30;71.90;;;;;;4984143;28;20053;-70
2023/06/13 10:50:08;;;;;;;6.03;4.20;;;25.40;72.10;;;;;;5086695;27;20054;-70
2023/06/13 10:52:33;;;;;;;9.77;4.40;;;25.30;72.30;;;;;;4989011;28;20047;-71
2023/06/13 10:55:01;;;;;;;6.20;4.30;;;25.40;73.50;;;;;;4999829;28;20045;-71
2023/06/13 10:57:46;;;;;;;7.32;3.90;;;;;;;;;;5052867;28;20065;-71
2023/06/13 11:00:22;;;;;;;8.90;4.00;;;;;;;;;;4986652;28;20070;-71
2023/06/13 11:02:48;;;;;;;11.45;4.40;;;;;;;;;;5039668;28;20050;-72
2023/06/13 11:05:14;;;;;;;8.65;4.13;;;;;;;;;;4987356;28;20069;-71
2023/06/13 11:07:46;;;;;;;12.15;4.38;;;;;;;;;;4987821;28;20038;-71
2023/06/13 11:10:14;;;;;;;7.50;3.90;;;25.70;74.80;;;;;;5052907;28;20081;-71
2023/06/13 11:12:44;;;;;;;9.43;3.65;;;25.60;74.80;;;;;;5054497;28;20233;-71
2023/06/13 11:15:28;;;;;;;5.95;3.80;;;25.60;73.80;;;;;;5051738;28;20463;-71
2023/06/13 11:18:20;;;;;;;8.25;3.58;;;25.50;76.80;;;;;;4983668;28;21922;-71
2023/06/13 11:20:49;;;;;;;10.15;3.67;;;25.50;79.90;;;;;;4997538;28;20061;-71
2023/06/13 11:23:34;;;;;;;5.47;3.35;;;;;;;;;;5051960;28;20066;-71
2023/06/13 11:26:01;;;;;;;7.65;3.55;;;25.60;78.40;;;;;;4976064;28;20398;-71
2023/06/13 11:28:26;;;;;;;7.78;3.38;;;25.60;78.20;;;;;;5046868;28;20110;-71
2023/06/13 11:30:52;;;;;;;7.28;3.08;;;25.60;76.60;;;;;;4980731;28;20448;-71
2023/06/13 11:33:19;;;;;;;7.07;3.35;;;25.60;75.50;;;;;;4984595;28;20057;-71
2023/06/13 11:35:53;;;;;;;5.10;3.20;;;25.50;75.50;;;;;;4983371;28;20046;-71
2023/06/13 11:38:33;;;;;;;5.97;3.30;;;25.50;74.20;;;;;;4987912;28;20062;-70
2023/06/13 11:40:59;;;;;;;8.13;2.85;;;25.40;73.40;;;;;;4986025;28;20385;-70
2023/06/13 11:43:28;;;;;;;6.63;2.92;;;25.30;71.80;;;;;;4981968;28;20055;-71
2023/06/13 11:46:01;;;;;;;7.20;2.90;;;25.30;71.40;;;;;;5044803;28;20135;-71
2023/06/13 11:48:27;;;;;;;;;;;25.40;71.10;;;;;;4981224;28;20053;-71
2023/06/13 11:50:53;;;;;;;6.60;3.08;;;25.30;71.00;;;;;;4987903;28;20324;-71
2023/06/13 11:53:19;;;;;;;6.90;2.92;;;25.30;71.10;;;;;;4982580;28;20047;-72
2023/06/13 11:55:45;;;;;;;12.85;3.40;;;25.30;72.30;;;;;;4984920;28;20041;-71
2023/06/13 11:58:11;;;;;;;7.60;3.25;;;25.30;71.90;;;;;;4985953;28;20061;-71
2023/06/13 12:00:53;;;;;;;8.80;2.75;;;25.40;72.40;;;;;;5082836;27;20043;-71
2023/06/13 12:03:23;;;;;;;3.92;2.80;;;25.40;72.60;;;;;;5053595;28;20046;-71
2023/06/13 12:05:50;;;;;;;6.90;2.80;;;25.40;72.20;;;;;;4987032;28;20194;-71
2023/06/13 12:08:16;;;;;;;8.13;3.30;;;25.30;72.00;;;;;;4987435;28;20055;-71
2023/06/13 12:10:47;;;;;;;3.95;2.70;;;25.40;70.80;;;;;;5040348;28;20046;-70
2023/06/13 12:13:16;;;;;;;6.03;2.70;;;25.30;70.80;;;;;;4988596;28;20045;-70
2023/06/13 12:15:42;;;;;;;17.63;3.70;;;25.40;71.70;;;;;;4987461;28;20049;-71
2023/06/13 12:18:08;;;;;;;9.38;3.08;;;25.50;72.80;;;;;;4986722;28;20042;-71
2023/06/13 12:20:51;;;;;;;6.97;3.20;;;25.50;72.50;;;;;;5033722;28;20542;-71
2023/06/13 12:23:20;;;;;;;4.07;2.58;;;25.50;70.50;;;;;;5053414;28;20058;-71
2023/06/13 12:25:49;;;;;;;10.85;3.00;;;25.50;71.20;;;;;;4986560;28;20038;-71
2023/06/13 12:28:15;;;;;;;6.45;2.60;;;25.50;73.60;;;;;;5051144;28;20054;-71
2023/06/13 12:30:43;;;;;;;5.07;2.63;;;25.70;72.70;;;;;;4987554;28;20053;-72
2023/06/13 12:33:15;;;;;;;6.93;2.53;;;25.60;72.20;;;;;;4987777;28;20053;-71
2023/06/13 12:35:54;;;;;;;3.08;2.25;;;25.60;72.10;;;;;;4986105;28;20056;-72
2023/06/13 12:38:26;;;;;;;10.35;3.35;;;25.60;72.20;;;;;;4987381;28;20054;-71
2023/06/13 12:40:52;;;;;;;5.83;2.93;;;25.60;73.50;;;;;;5050275;28;20088;-71
2023/06/13 12:43:24;;;;;;;8.43;2.97;;;25.60;73.50;;;;;;4984742;28;20046;-72
2023/06/13 12:45:50;;;;;;;5.63;3.15;;;25.80;73.20;;;;;;4987658;28;20077;-71
2023/06/13 12:48:20;;;;;;;6.45;2.50;;;25.80;73.60;;;;;;5053950;28;20529;-71
2023/06/13 12:50:47;;;;;;;4.72;2.70;;;25.80;73.00;;;;;;4982124;28;20038;-72
2023/06/13 12:53:17;;;;;;;7.88;2.58;;;25.90;73.90;;;;;;4982825;28;20359;-71
2023/06/13 12:55:43;;;;;;;5.28;2.67;;;25.90;74.10;;;;;;5047322;28;20039;-71
2023/06/13 12:58:32;;;;;;;8.02;2.75;;;25.90;74.20;;;;;;4984170;28;20099;-71
2023/06/13 13:00:59;;;;;;;6.30;2.90;;;26.00;75.80;;;;;;4984999;28;20397;-71
2023/06/13 13:03:26;;;;;;;8.77;2.80;;;26.00;76.90;;;;;;4988666;28;20046;-71
2023/06/13 13:05:53;;;;;;;7.28;2.95;;;26.20;76.90;;;;;;5085816;28;20440;-69
2023/06/13 13:08:20;;;;;;;6.53;2.83;;;;;;;;;;4985469;28;20111;-71
2023/06/13 13:10:48;;;;;;;5.95;2.70;;;26.20;77.10;;;;;;4987949;28;20059;-71
2023/06/13 13:13:14;;;;;;;9.77;3.13;;;26.20;77.40;;;;;;4986455;28;20047;-71
2023/06/13 13:15:40;;;;;;;7.05;2.95;;;26.30;75.30;;;;;;4979690;28;20085;-69
2023/06/13 13:18:07;;;;;;;8.13;3.03;;;26.30;77.10;;;;;;5053384;28;20177;-70
2023/06/13 13:20:33;;;;;;;5.15;2.92;;;;;;;;;;4987472;28;20076;-70
2023/06/13 13:23:00;;;;;;;7.70;2.92;;;;;;;;;;4986586;28;20047;-70